WEATHER DATA

TODAY
Time Temp. Dewp. Hum. Bar. 1h Prec. 24h Prec.
00:01 17.7 11 65 1014.6 0.0000 0.0000
00:21 17.1 10.9 67 1014.6 0.0000 0.0000
00:32 16.8 10.9 68 1014.6 0.0000 0.0000
00:41 16.6 10.7 68 1014.6 0.0000 0.0000
00:51 16.3 10.6 69 1014.6 0.0000 0.0000
01:02 16.1 10.4 69 1014.5 0.0000 0.0000
01:12 16 10.5 70 1014.5 0.0000 0.0000
01:21 15.8 10.6 71 1014.5 0.0000 0.0000
01:31 15.7 10.5 71 1014.5 0.0000 0.0000
01:42 15.6 10.6 72 1014.5 0.0000 0.0000
01:52 15.4 10.4 72 1014.6 0.0000 0.0000
02:02 15.3 10.5 73 1014.6 0.0000 0.0000
02:12 15.2 10.4 73 1014.6 0.0000 0.0000
02:22 15.2 10.4 73 1014.5 0.0000 0.0000
02:32 15.1 10.3 73 1014.5 0.0000 0.0000
02:42 15 10.4 74 1014.5 0.0000 0.0000
02:53 14.8 10.2 74 1014.4 0.0000 0.0000
03:02 14.7 10.1 74 1014.4 0.0000 0.0000
03:12 14.5 9.9 74 1014.3 0.0000 0.0000
03:23 14.3 9.7 74 1014.2 0.0000 0.0000
03:33 14.2 9.8 75 1014.1 0.0000 0.0000
03:43 14.1 9.7 75 1014.1 0.0000 0.0000
03:52 13.9 9.5 75 1014.1 0.0000 0.0000
04:03 13.8 9.6 76 1014 0.0000 0.0000
04:13 13.7 9.6 76 1014 0.0000 0.0000
04:23 13.7 9.6 76 1014 0.0000 0.0000
04:33 13.5 9.4 76 1013.8 0.0000 0.0000
04:43 13.4 9.5 77 1013.8 0.0000 0.0000
04:53 13.3 9.4 77 1013.7 0.0000 0.0000
05:03 13.2 9.3 77 1013.6 0.0000 0.0000
05:14 13.1 9.2 77 1013.5 0.0000 0.0000
05:23 13 9.3 78 1013.5 0.0000 0.0000
05:33 12.9 9.2 78 1013.6 0.0000 0.0000
05:44 12.8 9.1 78 1013.5 0.0000 0.0000
05:54 12.8 9.1 78 1013.6 0.0000 0.0000
06:04 12.8 9.3 79 1013.5 0.0000 0.0000
06:13 12.9 9.4 79 1013.5 0.0000 0.0000
06:24 13.4 10 80 1013.4 0.0000 0.0000
06:34 13.8 10.2 79 1013.4 0.0000 0.0000
06:44 14.4 10.8 79 1013.4 0.0000 0.0000
06:54 15.2 11.6 79 1013.4 0.0000 0.0000
07:04 15.9 12.1 78 1013.3 0.0000 0.0000
07:14 16.6 12.6 77 1013.3 0.0000 0.0000
07:24 17.1 13 77 1013.3 0.0000 0.0000
07:35 17.8 13.5 76 1013.3 0.0000 0.0000
07:44 18.2 13.7 75 1013.4 0.0000 0.0000
07:54 18.6 13.9 74 1013.4 0.0000 0.0000
08:04 19.1 14.2 73 1013.4 0.0000 0.0000
08:15 19.3 14.1 72 1013.4 0.0000 0.0000
08:25 19.6 14.4 72 1013.3 0.0000 0.0000
08:34 19.6 14.2 71 1013.3 0.0000 0.0000
08:45 19.6 14 70 1013.3 0.0000 0.0000
08:55 19.6 14 70 1013.3 0.0000 0.0000
09:05 19.7 14.1 70 1013.3 0.0000 0.0000
09:15 20.1 14.5 70 1013.4 0.0000 0.0000
09:25 20.2 14.3 69 1013.4 0.0000 0.0000
09:35 20.6 14.7 69 1013.4 0.0000 0.0000
09:45 20.8 14.9 69 1013.4 0.0000 0.0000
09:56 21.3 15.2 68 1013.3 0.0000 0.0000
10:06 21.3 14.9 67 1013.3 0.0000 0.0000
10:15 21.5 15.1 67 1013.3 0.0000 0.0000
10:25 21.6 15.2 67 1013.3 0.0000 0.0000
10:36 21.9 15.5 67 1013.3 0.0000 0.0000
10:46 22.3 15.9 67 1013.2 0.0000 0.0000
10:56 22.4 15.7 66 1013.2 0.0000 0.0000
11:06 22.8 16.1 66 1013.3 0.0000 0.0000
11:16 23 16.1 65 1013.3 0.0000 0.0000
11:26 23.4 16.2 64 1013.3 0.0000 0.0000
11:36 23.6 16.1 63 1013.2 0.0000 0.0000
11:46 23.9 16.4 63 1013.2 0.0000 0.0000
11:56 24.3 16.6 62 1013.1 0.0000 0.0000
12:06 24.7 16.7 61 1013.1 0.0000 0.0000
12:17 24.7 16.2 59 1013 0.0000 0.0000
12:27 25.1 16.3 58 1013 0.0000 0.0000
12:36 25.1 15.7 56 1013 0.0000 0.0000
12:46 25.5 16.1 56 1012.9 0.0000 0.0000
12:57 25.6 15.9 55 1012.9 0.0000 0.0000
13:07 25.4 15.4 54 1012.8 0.0000 0.0000
13:17 25.4 15.4 54 1012.8 0.0000 0.0000
13:27 25.5 15.2 53 1012.7 0.0000 0.0000
13:37 25.5 15.2 53 1012.7 0.0000 0.0000
13:47 25.7 15.4 53 1012.6 0.0000 0.0000
13:57 25.9 15.3 52 1012.5 0.0000 0.0000
14:08 26.2 15 50 1012.4 0.0000 0.0000
14:17 26.3 14.4 48 1012.4 0.0000 0.0000
14:27 26.4 13.9 46 1012.3 0.0000 0.0000
14:38 26.6 13.7 45 1012.2 0.0000 0.0000
14:48 26.6 13 43 1012.2 0.0000 0.0000
14:57 26.9 13.3 43 1012.1 0.0000 0.0000
15:07 27 13.4 43 1012 0.0000 0.0000
15:18 27 13 42 1012 0.0000 0.0000
15:28 27 12.6 41 1011.8 0.0000 0.0000
15:37 27.2 12.4 40 1011.8 0.0000 0.0000
15:48 27.2 12.4 40 1011.8 0.0000 0.0000
15:58 27.2 12.1 39 1011.7 0.0000 0.0000
16:08 27.5 12.3 39 1011.6 0.0000 0.0000
16:18 27.5 11.5 37 1011.6 0.0000 0.0000
16:28 27.6 11.6 37 1011.4 0.0000 0.0000
16:38 27.6 11.6 37 1011.4 0.0000 0.0000
16:48 27.7 10.9 35 1011.4 0.0000 0.0000
17:18 27.8 11 35 1011.2 0.0000 0.0000
17:28 27.7 10.9 35 1011.1 0.0000 0.0000
17:39 27.7 11.3 36 1011.1 0.0000 0.0000
17:49 27.6 10.3 34 1011 0.0000 0.0000
17:58 27.5 9.3 32 1010.9 0.0000 0.0000
18:09 27.4 9.3 32 1010.8 0.0000 0.0000
18:19 27.3 9.2 32 1010.7 0.0000 0.0000
18:29 27.2 9.5 33 1010.7 0.0000 0.0000
18:39 27.1 9.5 33 1010.7 0.0000 0.0000
18:49 27 9.4 33 1010.7 0.0000 0.0000
18:59 26.8 9.6 34 1010.7 0.0000 0.0000
19:09 26.9 9.3 33 1010.7 0.0000 0.0000
19:20 27 9.8 34 1010.7 0.0000 0.0000
19:29 27.5 10.3 34 1010.7 0.0000 0.0000
19:39 27.7 10.4 34 1010.7 0.0000 0.0000
19:49 27.6 9.9 33 1010.8 0.0000 0.0000
20:00 27.5 9.8 33 1010.8 0.0000 0.0000
20:09 27.2 10 34 1010.7 0.0000 0.0000
20:19 27 9.8 34 1010.7 0.0000 0.0000
20:30 26.5 9.4 34 1010.8 0.0000 0.0000
20:40 25.6 9 35 1010.8 0.0000 0.0000
20:49 25 8.9 36 1010.8 0.0000 0.0000

DAY STATISTIC

2019-07-17
TEMPERATURE
AVERAGE
21.1
HIGH
27.8
17:18
LOW
12.8
05:44
PRESSURE
AVERAGE
1012.9
HIGH
1014.6
00:01
LOW
1010.7
18:19
DEWPOINT
AVERAGE
12.1
HIGH
16.7
12:06
LOW
8.9
20:49
HUMIDITY
AVERAGE
59
HIGH
80
06:24
LOW
32
17:58
PRECIPITATION
RAIN HOUR
0.0
RAIN DAY
0.0
TEMPERATURE (°C)
LOW
12.8
HIGH
27.8
AVERAGE
21.1
PRESSURE (hpa)
LOW
1010.7
HIGH
1014.6
AVERAGE
1012.9
DEVICE